createdAt,value
2022-11-24T00:01:54.267Z,97122.83
2022-11-24T00:05:37.907Z,97115.98
2022-11-24T00:09:00.207Z,97114.34
2022-11-24T00:12:37.716Z,97116.41
2022-11-24T00:16:21.238Z,97116.29
2022-11-24T00:20:11.976Z,97120.09
2022-11-24T00:23:34.377Z,97115.77
2022-11-24T00:27:11.005Z,97116.44
2022-11-24T00:30:48.848Z,97116.74
2022-11-24T00:34:46.645Z,97117.05
2022-11-24T00:38:08.582Z,97119.29
2022-11-24T00:41:46.635Z,97128.16
2022-11-24T00:45:23.858Z,97130.29
2022-11-24T00:49:01.806Z,97138.68
2022-11-24T00:52:39.499Z,97140.37
2022-11-24T00:56:16.993Z,97142.57
2022-11-24T00:59:54.716Z,97142.50
2022-11-24T01:03:52.151Z,97145.77
2022-11-24T01:07:14.223Z,97144.88
2022-11-24T01:11:25.624Z,97146.98
2022-11-24T01:15:07.417Z,97145.83
2022-11-24T01:18:49.139Z,97142.89
2022-11-24T01:22:10.552Z,97144.23
2022-11-24T01:25:48.349Z,97143.73
2022-11-24T01:29:26.328Z,97146.73
2022-11-24T01:33:03.624Z,97152.05
2022-11-24T01:36:41.045Z,97157.33
2022-11-24T01:40:19.204Z,97157.95
2022-11-24T01:43:57.825Z,97159.62
2022-11-24T01:47:41.067Z,97160.94
2022-11-24T01:51:17.434Z,97166.48
2022-11-24T01:54:54.799Z,97166.89
2022-11-24T01:58:32.439Z,97170.62
2022-11-24T02:02:27.273Z,97171.67
2022-11-24T02:06:10.647Z,97175.25
2022-11-24T02:09:47.860Z,97177.27
2022-11-24T02:13:10.082Z,97179.80
2022-11-24T02:17:07.946Z,97171.94
2022-11-24T02:20:48.489Z,97172.69
2022-11-24T02:24:24.255Z,97169.84
2022-11-24T02:27:53.515Z,97169.89
2022-11-24T02:31:50.942Z,97166.05
2022-11-24T02:35:13.716Z,97162.55
2022-11-24T02:38:50.452Z,97157.36
2022-11-24T02:42:32.800Z,97162.25
2022-11-24T02:46:25.086Z,97163.39
2022-11-24T02:50:06.438Z,97162.14
2022-11-24T02:53:46.933Z,97164.73
2022-11-24T02:57:08.969Z,97167.87
2022-11-24T03:01:05.304Z,97167.83
2022-11-24T03:04:27.382Z,97167.38
2022-11-24T03:08:23.878Z,97164.27
2022-11-24T03:11:45.651Z,97159.91
2022-11-24T03:15:42.165Z,97151.74
2022-11-24T03:19:22.596Z,97149.80
2022-11-24T03:22:44.138Z,97153.09
2022-11-24T03:26:24.136Z,97154.91
2022-11-24T03:29:59.480Z,97153.73
2022-11-24T03:33:56.199Z,97159.93
2022-11-24T03:37:17.760Z,97162.38
2022-11-24T03:40:55.655Z,97166.27
2022-11-24T03:44:33.363Z,97168.60
2022-11-24T03:48:10.837Z,97171.09
2022-11-24T03:52:08.597Z,97177.53
2022-11-24T03:55:30.421Z,97176.16
2022-11-24T03:59:26.827Z,97175.65
2022-11-24T04:02:48.784Z,97179.70
2022-11-24T04:06:45.441Z,97180.30
2022-11-24T04:10:07.994Z,97184.94
2022-11-24T04:13:47.494Z,97183.95
2022-11-24T04:17:22.837Z,97188.98
2022-11-24T04:21:00.398Z,97191.95
2022-11-24T04:24:38.302Z,97192.22
2022-11-24T04:28:34.728Z,97196.55
2022-11-24T04:31:56.841Z,97200.15
2022-11-24T04:35:35.696Z,97204.11
2022-11-24T04:39:25.873Z,97204.11
2022-11-24T04:42:56.881Z,97208.20
2022-11-24T04:46:28.373Z,97212.17
2022-11-24T04:50:25.011Z,97215.27
2022-11-24T04:53:49.272Z,97218.67
2022-11-24T04:57:26.836Z,97219.13
2022-11-24T05:01:06.254Z,97224.10
2022-11-24T05:04:40.499Z,97228.68
2022-11-24T05:08:17.774Z,97228.52
2022-11-24T05:11:55.287Z,97230.73
2022-11-24T05:15:33.492Z,97233.55
2022-11-24T05:19:10.655Z,97231.45
2022-11-24T05:23:07.938Z,97232.80
2022-11-24T05:26:29.485Z,97240.54
2022-11-24T05:30:08.318Z,97239.39
2022-11-24T05:33:45.759Z,97239.24
2022-11-24T05:37:22.453Z,97240.17
2022-11-24T05:41:04.849Z,97241.48
2022-11-24T05:44:57.072Z,97240.77
2022-11-24T05:48:19.233Z,97245.29
2022-11-24T05:52:16.659Z,97246.95
2022-11-24T05:55:57.224Z,97252.16
2022-11-24T05:59:20.040Z,97256.42
2022-11-24T06:03:01.210Z,97261.61
2022-11-24T06:06:34.440Z,97263.77
2022-11-24T06:10:30.918Z,97272.11
2022-11-24T06:13:52.634Z,97276.61
2022-11-24T06:17:54.465Z,97275.78
2022-11-24T06:21:35.276Z,97285.06
2022-11-24T06:24:56.847Z,97288.83
2022-11-24T06:28:34.940Z,97294.41
2022-11-24T06:32:31.142Z,97297.41
2022-11-24T06:35:53.553Z,97301.65
2022-11-24T06:39:30.056Z,97301.58
2022-11-24T06:43:07.727Z,97306.98
2022-11-24T06:47:04.442Z,97308.06
2022-11-24T06:50:44.757Z,97315.34
2022-11-24T06:54:07.061Z,97316.17
2022-11-24T06:57:44.157Z,97320.86
2022-11-24T07:01:40.666Z,97322.19
2022-11-24T07:05:21.208Z,97318.52
2022-11-24T07:08:43.673Z,97322.36
2022-11-24T07:12:39.653Z,97321.41
2022-11-24T07:16:12.372Z,97325.52
2022-11-24T07:19:58.273Z,97324.94
2022-11-24T07:23:19.810Z,97327.85
2022-11-24T07:27:16.388Z,97333.55
2022-11-24T07:30:37.967Z,97331.46
2022-11-24T07:34:34.821Z,97335.81
2022-11-24T07:38:15.690Z,97333.65
2022-11-24T07:41:59.131Z,97333.80
2022-11-24T07:45:21.491Z,97331.92
2022-11-24T07:48:58.464Z,97335.34
2022-11-24T07:52:37.291Z,97339.76
2022-11-24T07:56:33.041Z,97340.61
2022-11-24T08:00:14.000Z,97341.29
2022-11-24T08:03:36.007Z,97345.09
2022-11-24T08:07:13.630Z,97348.86
2022-11-24T08:11:12.790Z,97350.15
2022-11-24T08:14:53.820Z,97346.16
2022-11-24T08:18:36.698Z,97348.25
2022-11-24T08:22:17.303Z,97349.33
2022-11-24T08:26:04.239Z,97355.85
2022-11-24T08:29:31.013Z,97358.95
2022-11-24T08:33:03.935Z,97361.48
2022-11-24T08:37:01.997Z,97359.52
2022-11-24T08:40:42.462Z,97359.74
2022-11-24T08:44:23.232Z,97363.36
2022-11-24T08:48:04.484Z,97365.96
2022-11-24T08:51:27.201Z,97370.55
2022-11-24T08:55:03.932Z,97371.90
2022-11-24T08:58:41.881Z,97377.11
2022-11-24T09:02:18.838Z,97377.46
2022-11-24T09:05:56.646Z,97378.08
2022-11-24T09:09:34.648Z,97381.64
2022-11-24T09:13:12.489Z,97380.24
2022-11-24T09:17:08.467Z,97385.12
2022-11-24T09:20:49.495Z,97384.23
2022-11-24T09:24:11.260Z,97387.04
2022-11-24T09:27:49.421Z,97387.80
2022-11-24T09:31:29.594Z,97385.58
2022-11-24T09:35:24.192Z,97389.35
2022-11-24T09:38:45.704Z,97387.49
2022-11-24T09:42:57.316Z,97391.59
2022-11-24T09:46:26.809Z,97392.73
2022-11-24T09:50:10.683Z,97393.77
2022-11-24T09:54:00.804Z,97394.13
2022-11-24T09:57:44.576Z,97391.77
2022-11-24T10:01:20.214Z,97394.03
2022-11-24T10:04:46.594Z,97392.25
2022-11-24T10:08:43.719Z,97395.66
2022-11-24T10:12:37.419Z,97397.41
2022-11-24T10:16:27.723Z,97397.11
2022-11-24T10:20:16.842Z,97399.52
2022-11-24T10:24:16.359Z,97401.16
2022-11-24T10:27:49.387Z,97399.05
2022-11-24T10:31:29.437Z,97401.04
2022-11-24T10:35:20.857Z,97400.70
2022-11-24T10:38:59.960Z,97403.66
2022-11-24T10:42:28.415Z,97404.95
2022-11-24T10:46:11.542Z,97404.83
2022-11-24T10:49:37.812Z,97405.36
2022-11-24T10:53:26.770Z,97411.52
2022-11-24T10:57:27.399Z,97414.27
2022-11-24T11:01:13.896Z,97412.23
2022-11-24T11:04:54.500Z,97411.96
2022-11-24T11:08:28.964Z,97409.73
2022-11-24T11:11:53.989Z,97411.90
2022-11-24T11:15:50.267Z,97411.86
2022-11-24T11:19:58.492Z,97413.14
2022-11-24T11:23:28.097Z,97411.48
2022-11-24T11:27:17.018Z,97416.55
2022-11-24T11:34:29.807Z,97416.11
2022-11-24T11:38:19.981Z,97413.83
2022-11-24T11:41:46.229Z,97416.52
2022-11-24T11:45:44.520Z,97419.03
2022-11-24T11:49:11.420Z,97422.14
2022-11-24T11:53:04.523Z,97429.14
2022-11-24T11:56:35.144Z,97432.40
2022-11-24T12:00:24.090Z,97432.93
2022-11-24T12:04:43.721Z,97433.14
2022-11-24T12:08:19.219Z,97433.78
2022-11-24T12:12:00.868Z,97429.85
2022-11-24T12:15:28.177Z,97432.68
2022-11-24T12:19:05.616Z,97437.52
2022-11-24T12:23:00.257Z,97436.14
2022-11-24T12:26:48.411Z,97437.79
2022-11-24T12:30:16.141Z,97443.39
2022-11-24T12:34:01.526Z,97448.77
2022-11-24T12:38:01.915Z,97448.02
2022-11-24T12:41:45.486Z,97454.27
2022-11-24T12:45:28.448Z,97454.52
2022-11-24T12:49:30.923Z,97452.30
2022-11-24T12:53:16.530Z,97458.92
2022-11-24T12:56:41.676Z,97458.11
2022-11-24T13:00:27.498Z,97463.58
2022-11-24T13:04:01.239Z,97466.04
2022-11-24T13:07:47.587Z,97465.95
2022-11-24T13:11:22.462Z,97467.08
2022-11-24T13:14:49.035Z,97469.36
2022-11-24T13:18:58.298Z,97477.33
2022-11-24T13:22:36.311Z,97475.69
2022-11-24T13:26:29.843Z,97478.76
2022-11-24T13:30:32.451Z,97486.95
2022-11-24T13:34:38.114Z,97493.31
2022-11-24T13:37:59.869Z,97496.60
2022-11-24T13:41:37.297Z,97507.95
2022-11-24T13:45:41.291Z,97505.36
2022-11-24T13:49:22.153Z,97511.88
2022-11-24T13:53:13.242Z,97514.09
2022-11-24T13:56:34.663Z,97513.86
2022-11-24T14:00:58.436Z,97517.71
2022-11-24T14:04:30.917Z,97524.00
2022-11-24T14:07:58.482Z,97522.91
2022-11-24T14:11:36.125Z,97530.11
2022-11-24T14:15:25.744Z,97534.10
2022-11-24T14:19:10.681Z,97541.33
2022-11-24T14:22:39.401Z,97550.34
2022-11-24T14:26:36.495Z,97553.81
2022-11-24T14:30:05.688Z,97556.05
2022-11-24T14:33:36.430Z,97560.23
2022-11-24T14:37:13.285Z,97567.75
2022-11-24T14:40:55.615Z,97575.84
2022-11-24T14:44:52.111Z,97577.75
2022-11-24T14:48:16.862Z,97577.70
2022-11-24T14:51:58.587Z,97580.42
2022-11-24T14:55:31.237Z,97580.80
2022-11-24T14:59:24.840Z,97586.67
2022-11-24T15:02:49.721Z,97592.64
2022-11-24T15:06:25.009Z,97597.36
2022-11-24T15:10:05.175Z,97599.71
2022-11-24T15:13:49.940Z,97604.02
2022-11-24T15:17:21.912Z,97610.36
2022-11-24T15:20:56.599Z,97610.29
2022-11-24T15:24:33.638Z,97616.33
2022-11-24T15:28:12.038Z,97620.96
2022-11-24T15:31:52.647Z,97623.76
2022-11-24T15:35:30.440Z,97631.19
2022-11-24T15:39:04.215Z,97635.12
2022-11-24T15:42:42.855Z,97637.65
2022-11-24T15:46:19.545Z,97640.34
2022-11-24T15:49:57.235Z,97640.89
2022-11-24T15:54:00.693Z,97641.73
2022-11-24T15:57:23.013Z,97643.83
2022-11-24T16:01:00.734Z,97644.00
2022-11-24T16:04:57.084Z,97646.66
2022-11-24T16:08:37.549Z,97646.72
2022-11-24T16:11:58.883Z,97646.45
2022-11-24T16:15:37.720Z,97651.51
2022-11-24T16:19:15.867Z,97655.09
2022-11-24T16:22:51.993Z,97656.48
2022-11-24T16:26:29.620Z,97658.39
2022-11-24T16:30:26.148Z,97660.64
2022-11-24T16:33:47.712Z,97662.19
2022-11-24T16:37:25.392Z,97662.58
2022-11-24T16:41:22.099Z,97663.30
2022-11-24T16:44:44.045Z,97664.84
2022-11-24T16:48:21.555Z,97668.70
2022-11-24T16:52:00.736Z,97667.66
2022-11-24T16:55:57.220Z,97673.98
2022-11-24T16:59:19.140Z,97676.80
2022-11-24T17:02:56.905Z,97678.42
2022-11-24T17:06:35.232Z,97680.61
2022-11-24T17:10:12.139Z,97682.73
2022-11-24T17:14:09.845Z,97688.95
2022-11-24T17:17:31.220Z,97691.56
2022-11-24T17:21:27.954Z,97699.44
2022-11-24T17:24:49.602Z,97702.34
2022-11-24T17:28:27.321Z,97705.09
2022-11-24T17:32:05.199Z,97710.45
2022-11-24T17:35:42.653Z,97712.46
2022-11-24T17:39:24.744Z,97712.42
2022-11-24T17:42:59.610Z,97713.70
2022-11-24T17:46:37.237Z,97716.05
2022-11-24T17:50:32.378Z,97718.60
2022-11-24T17:53:55.237Z,97722.30
2022-11-24T18:16:07.627Z,97743.67
2022-11-24T18:19:42.834Z,97747.31
2022-11-24T18:23:47.453Z,97748.43
2022-11-24T18:27:40.799Z,97749.16
2022-11-24T18:31:04.805Z,97758.33
2022-11-24T18:34:40.228Z,97761.20
2022-11-24T18:38:18.082Z,97763.22
2022-11-24T18:41:55.873Z,97768.41
2022-11-24T18:45:39.873Z,97765.97
2022-11-24T18:49:10.762Z,97766.96
2022-11-24T18:52:48.721Z,97763.67
2022-11-24T18:56:26.724Z,97767.63
2022-11-24T19:00:15.865Z,97766.20
2022-11-24T19:04:02.311Z,97766.71
2022-11-24T19:07:24.186Z,97773.35
2022-11-24T19:11:24.350Z,97775.71
2022-11-24T19:14:54.611Z,97782.52
2022-11-24T19:18:29.958Z,97785.95
2022-11-24T19:22:23.315Z,97790.17
2022-11-24T19:26:05.629Z,97794.80
2022-11-24T19:29:27.353Z,97794.89
2022-11-24T19:33:08.144Z,97796.48
2022-11-24T19:36:43.337Z,97794.20
2022-11-24T19:40:39.199Z,97795.07
2022-11-24T19:44:00.911Z,97794.77
2022-11-24T19:47:57.711Z,97799.80
2022-11-24T19:51:30.546Z,97799.08
2022-11-24T19:55:16.113Z,97803.42
2022-11-24T19:58:38.591Z,97804.54
2022-11-24T20:02:17.005Z,97806.02
2022-11-24T20:05:56.455Z,97810.63
2022-11-24T20:09:30.824Z,97816.52
2022-11-24T20:13:27.241Z,97819.30
2022-11-24T20:17:07.992Z,97826.02
2022-11-24T20:20:51.040Z,97835.92
2022-11-24T20:24:16.559Z,97837.78
2022-11-24T20:28:09.293Z,97839.13
2022-11-24T20:31:52.720Z,97842.27
2022-11-24T20:35:33.309Z,97847.27
2022-11-24T20:38:56.035Z,97853.25
2022-11-24T20:42:34.313Z,97852.53
2022-11-24T20:46:14.008Z,97850.92
2022-11-24T20:50:06.832Z,97853.55
2022-11-24T20:53:53.121Z,97851.83
2022-11-24T20:57:33.379Z,97857.86
2022-11-24T21:00:54.861Z,97859.84
2022-11-24T21:04:35.143Z,97867.36
2022-11-24T21:08:32.183Z,97866.92
2022-11-24T21:11:54.782Z,97864.20
2022-11-24T21:15:31.662Z,97863.88
2022-11-24T21:19:14.908Z,97859.83
2022-11-24T21:28:28.537Z,97865.46
2022-11-24T21:32:05.573Z,97870.94
2022-11-24T21:36:04.149Z,97871.79
2022-11-24T21:39:44.956Z,97873.46
2022-11-24T21:43:28.038Z,97882.59
2022-11-24T21:46:55.701Z,97883.96
2022-11-24T21:50:27.776Z,97888.45
2022-11-24T21:54:24.149Z,97879.96
2022-11-24T21:57:46.527Z,97879.86
2022-11-24T22:01:28.739Z,97877.45
2022-11-24T22:05:01.436Z,97881.77
2022-11-24T22:08:39.123Z,97884.27
2022-11-24T22:12:35.540Z,97881.45
2022-11-24T22:16:02.497Z,97878.02
2022-11-24T22:19:53.855Z,97874.04
2022-11-24T22:23:15.324Z,97871.06
2022-11-24T22:26:54.812Z,97879.66
2022-11-24T22:30:30.564Z,97879.52
2022-11-24T22:34:08.735Z,97883.86
2022-11-24T22:37:46.016Z,97888.55
2022-11-24T22:41:24.703Z,97891.92
2022-11-24T22:45:01.459Z,97903.02
2022-11-24T22:48:40.534Z,97911.02
2022-11-24T22:52:17.751Z,97911.76
2022-11-24T22:55:54.738Z,97906.96
2022-11-24T22:59:50.955Z,97907.42
2022-11-24T23:03:36.270Z,97908.04
2022-11-24T23:06:58.503Z,97907.11
2022-11-24T23:10:36.278Z,97913.19
2022-11-24T23:14:32.290Z,97917.28
2022-11-24T23:17:54.290Z,97924.98
2022-11-24T23:21:33.628Z,97924.05
2022-11-24T23:25:27.969Z,97924.49
2022-11-24T23:29:09.966Z,97926.21
2022-11-24T23:32:31.628Z,97929.33
2022-11-24T23:36:11.592Z,97934.50
2022-11-24T23:39:49.641Z,97936.30
2022-11-24T23:43:24.849Z,97938.04
2022-11-24T23:47:21.274Z,97930.98
2022-11-24T23:50:42.785Z,97930.71
2022-11-24T23:54:39.354Z,97931.35
2022-11-24T23:58:00.978Z,97936.06
